ENFB/FBU METAR and TAF weather

Enter ICAO airport designator
Station Type Date Time Source
ENFB METAR 2022/09/26 09:20 UTC NOAA

ENFB 260920Z AUTO 31022KT 9999NDV -SHRA BKN017/// BKN046/// BKN075/// 09/06 Q0989 W///S6


Station Type Date Time Source
ENFB Decoded METAR 2022/09/26 09:20 UTC NOAA

Oslo / Fornebu, Norway (ENFB) 59-54N 010-38E 17M
Sep 26, 2022 - 05:20 AM EDT / 2022.09.26 0920 UTC
Wind: from the NW (310 degrees) at 25 MPH (22 KT):0
Sky conditions: mostly cloudy
Weather: light rain showers
Temperature: 48 F (9 C)
Dew Point: 42 F (6 C)
Relative Humidity: 81%
Pressure (altimeter): 29.21 in. Hg (0989 hPa)
ob: ENFB 260920Z AUTO 31022KT 9999NDV -SHRA BKN017/// BKN046/// BKN075/// 09/06 Q0989 W///S6
cycle: 9

Station Type Date Time Source
ENFB TAF UTC NOAA

Error!

Example: see airport list